KFOT Airport Information

Runway Information
Runway 11 Length 4005 ft width 100 ft
Elevation 340 ft Threshold 0 ft Heading 127
Runway 29 Length 4005 ft Width 100 ft
Elevation 392 ft Threshold 0 ft Heading 307
Airport Frequencies
Type CNTR Name SEATTLE CN Frequency 124.85 MHZ
Type CTAF Name CTAF Frequency 122.9 MHZ
Type RDO Name OAKLAND RD Frequency 122.3 MHZ
Airport Navaids
Airport Weather Information & NOTAM
ADDS - METARS form results

(1603 UTC 24 April 2019)
Data provider http://aviationweather.gov/metar/data/
 
METAR text: KFOT 241555Z AUTO 32003KT 8SM BKN008 09/08 A3015 RMK AO1
Conditions at: KFOT (FORTUNA , CA, US) observed 1555 UTC 24 April 2019
Temperature: 9.0°C (48°F)
Dewpoint: 8.0°C (46°F) [RH = 93%]
Pressure (altimeter): 30.15 inches Hg (1021.1 mb)
Winds: from the NW (320 degrees) at 3 MPH (3 knots; 1.5 m/s)
Visibility: 8 miles (13 km)
Ceiling: 800 feet AGL
Clouds: broken clouds at 800 feet AGL
Weather: automated observation with no human augmentation;
there may or may not be significant weather present at this time

METAR text: KFOT 241535Z AUTO 31006KT 8SM OVC006 09/08 A3015 RMK AO1
Conditions at: KFOT (FORTUNA , CA, US) observed 1535 UTC 24 April 2019
Temperature: 9.0°C (48°F)
Dewpoint: 8.0°C (46°F) [RH = 93%]
Pressure (altimeter): 30.15 inches Hg (1021.1 mb)
Winds: from the NW (310 degrees) at 7 MPH (6 knots; 3.1 m/s)
Visibility: 8 miles (13 km)
Ceiling: 600 feet AGL
Clouds: overcast cloud deck at 600 feet AGL
Weather: automated observation with no human augmentation;
there may or may not be significant weather present at this time

METAR text: KFOT 241515Z AUTO 32004KT 6SM OVC006 09/08 A3016 RMK AO1
Conditions at: KFOT (FORTUNA , CA, US) observed 1515 UTC 24 April 2019
Temperature: 9.0°C (48°F)
Dewpoint: 8.0°C (46°F) [RH = 93%]
Pressure (altimeter): 30.16 inches Hg (1021.4 mb)
Winds: from the NW (320 degrees) at 5 MPH (4 knots; 2.1 m/s)
Visibility: 6 miles (10 km)
Ceiling: 600 feet AGL
Clouds: overcast cloud deck at 600 feet AGL
Weather: automated observation with no human augmentation;
there may or may not be significant weather present at this time